createdAt,value
2024-02-27T00:01:02.000Z,18.2
2024-02-27T00:03:46.939Z,20
2024-02-27T00:06:31.000Z,17.7
2024-02-27T00:09:15.000Z,18.8
2024-02-27T00:10:33.000Z,17.7
2024-02-27T00:12:00.852Z,20.7
2024-02-27T00:14:45.000Z,20.5
2024-02-27T00:17:29.000Z,19.6
2024-02-27T00:20:14.000Z,20.1
2024-02-27T00:22:59.000Z,21.3
2024-02-27T00:25:43.000Z,19.1
2024-02-27T00:28:28.704Z,20.2
2024-02-27T00:31:13.000Z,20.5
2024-02-27T00:33:57.989Z,20.2
2024-02-27T00:36:42.644Z,18.4
2024-02-27T00:38:00.388Z,21.7
2024-02-27T00:39:27.000Z,19.7
2024-02-27T00:42:11.908Z,20.6
2024-02-27T00:44:56.555Z,21.4
2024-02-27T00:47:40.000Z,24.9
2024-02-27T00:50:25.835Z,22.5
2024-02-27T00:53:10.488Z,22.4
2024-02-27T00:55:54.000Z,26
2024-02-27T00:58:39.000Z,21.4
2024-02-27T01:01:24.000Z,24.2
2024-02-27T01:04:08.000Z,22.1
2024-02-27T01:05:26.827Z,22.2
2024-02-27T01:06:53.710Z,22.8
2024-02-27T01:09:38.000Z,21.8
2024-02-27T01:12:22.000Z,23.6
2024-02-27T01:15:07.000Z,21.5
2024-02-27T01:17:52.251Z,24.9
2024-02-27T01:20:36.000Z,25
2024-02-27T01:23:21.000Z,23.3
2024-02-27T01:26:05.000Z,19.4
2024-02-27T01:28:50.828Z,19.9
2024-02-27T01:31:35.000Z,20
2024-02-27T01:32:53.000Z,23
2024-02-27T01:34:19.000Z,22.2
2024-02-27T01:37:04.000Z,21.1
2024-02-27T01:39:49.000Z,22.7
2024-02-27T01:42:33.000Z,24.9
2024-02-27T01:45:18.000Z,22
2024-02-27T01:48:03.311Z,21.4
2024-02-27T01:50:47.950Z,20.7
2024-02-27T01:53:32.000Z,23.3
2024-02-27T01:56:17.228Z,21.3
2024-02-27T01:59:01.878Z,25.7
2024-02-27T02:00:19.000Z,21.7
2024-02-27T02:01:46.000Z,22.7
2024-02-27T02:04:31.153Z,23.8
2024-02-27T02:07:15.000Z,23
2024-02-27T02:10:00.000Z,23.4
2024-02-27T02:12:45.079Z,23.1
2024-02-27T02:15:29.713Z,22.1
2024-02-27T02:18:14.000Z,22.4
2024-02-27T02:20:58.000Z,22.2
2024-02-27T02:23:43.639Z,22.9
2024-02-27T02:26:28.000Z,22.1
2024-02-27T02:27:45.000Z,24.6
2024-02-27T02:29:12.929Z,22.5
2024-02-27T02:31:57.567Z,21.5
2024-02-27T02:34:41.000Z,25
2024-02-27T02:37:26.000Z,22.9
2024-02-27T02:40:11.492Z,22.8
2024-02-27T02:42:55.000Z,21.7
2024-02-27T02:45:40.000Z,20.8
2024-02-27T02:48:25.407Z,22.8
2024-02-27T02:51:09.000Z,24.9
2024-02-27T02:53:54.693Z,20.6
2024-02-27T02:55:12.000Z,22.8
2024-02-27T02:56:39.345Z,22.7
2024-02-27T02:59:23.000Z,25.5
2024-02-27T03:02:08.000Z,23.5
2024-02-27T03:04:53.000Z,23.3
2024-02-27T03:07:37.000Z,23.1
2024-02-27T03:10:22.000Z,22.3
2024-02-27T03:13:07.206Z,22.8
2024-02-27T03:15:51.000Z,23.6
2024-02-27T03:18:36.000Z,24
2024-02-27T03:21:21.107Z,25.9
2024-02-27T03:22:39.004Z,22.7
2024-02-27T03:24:05.752Z,23.1
2024-02-27T03:26:50.401Z,23.4
2024-02-27T03:29:35.042Z,20.7
2024-02-27T03:32:19.000Z,24.4
2024-02-27T03:35:04.331Z,22.2
2024-02-27T03:37:48.963Z,25
2024-02-27T03:43:18.261Z,22.9
2024-02-27T03:46:02.891Z,23.7
2024-02-27T03:48:47.000Z,20.8
2024-02-27T03:50:05.431Z,23.2
2024-02-27T03:51:32.169Z,22.8
2024-02-27T03:54:16.813Z,22.8
2024-02-27T03:57:01.000Z,23.4
2024-02-27T03:59:45.000Z,24
2024-02-27T04:02:30.752Z,23.2
2024-02-27T04:05:15.000Z,23.5
2024-02-27T04:08:00.028Z,22.9
2024-02-27T04:10:44.749Z,24.9
2024-02-27T04:13:29.000Z,23.3
2024-02-27T04:16:13.960Z,22.7
2024-02-27T04:17:31.000Z,26.4
2024-02-27T04:18:58.583Z,23.2
2024-02-27T04:21:42.000Z,22.1
2024-02-27T04:24:27.875Z,25.7
2024-02-27T04:27:12.000Z,26.1
2024-02-27T04:29:56.000Z,23.3
2024-02-27T04:32:41.000Z,27.2
2024-02-27T04:35:26.455Z,24.9
2024-02-27T04:38:10.000Z,23.5
2024-02-27T04:43:40.378Z,22
2024-02-27T04:44:58.000Z,22.4
2024-02-27T04:46:24.000Z,25.4
2024-02-27T04:49:09.645Z,25.6
2024-02-27T04:51:54.290Z,28
2024-02-27T04:54:38.000Z,24.3
2024-02-27T04:57:23.574Z,24.9
2024-02-27T05:00:08.238Z,25.2
2024-02-27T05:02:52.847Z,24.6
2024-02-27T05:05:37.000Z,23.9
2024-02-27T05:08:22.139Z,21.5
2024-02-27T05:11:06.000Z,24.8
2024-02-27T05:12:24.000Z,25.9
2024-02-27T05:13:51.427Z,24.8
2024-02-27T05:16:36.073Z,26.4
2024-02-27T05:19:20.000Z,26.7
2024-02-27T05:22:05.341Z,25.8
2024-02-27T05:24:49.985Z,25.6
2024-02-27T05:27:34.000Z,27.7
2024-02-27T05:30:19.257Z,25.1
2024-02-27T05:33:03.914Z,28
2024-02-27T05:35:48.000Z,25.6
2024-02-27T05:38:33.187Z,28.9
2024-02-27T05:39:50.000Z,27.3
2024-02-27T05:41:17.851Z,26.7
2024-02-27T05:44:02.000Z,26.2
2024-02-27T05:46:46.000Z,25.4
2024-02-27T05:49:31.752Z,27.3
2024-02-27T05:52:16.395Z,27.4
2024-02-27T05:55:01.051Z,29.6
2024-02-27T05:57:45.000Z,25.7
2024-02-27T06:00:30.000Z,28
2024-02-27T06:03:14.961Z,28.1
2024-02-27T06:05:59.605Z,30.2
2024-02-27T06:07:17.591Z,28
2024-02-27T06:08:44.000Z,31.3
2024-02-27T06:11:28.888Z,29.8
2024-02-27T06:14:13.000Z,36.9
2024-02-27T06:16:57.000Z,36.8
2024-02-27T06:19:42.577Z,35
2024-02-27T06:22:27.480Z,34.1
2024-02-27T06:25:12.090Z,33.9
2024-02-27T06:27:56.000Z,34.1
2024-02-27T06:30:41.396Z,34.7
2024-02-27T06:33:25.000Z,33.2
2024-02-27T06:34:44.023Z,35.3
2024-02-27T06:36:10.667Z,32.5
2024-02-27T06:38:55.305Z,36.1
2024-02-27T06:41:39.000Z,34.9
2024-02-27T06:44:24.000Z,33.8
2024-02-27T06:47:09.249Z,30.8
2024-02-27T06:49:53.000Z,33.1
2024-02-27T06:52:38.000Z,30.3
2024-02-27T06:55:22.000Z,36.6
2024-02-27T06:58:07.000Z,29.9
2024-02-27T07:00:52.437Z,27.9
2024-02-27T07:02:10.000Z,26.6
2024-02-27T07:03:37.087Z,25
2024-02-27T07:06:21.000Z,26.6
2024-02-27T07:09:06.000Z,25.1
2024-02-27T07:11:51.043Z,24.7
2024-02-27T07:14:35.647Z,23.1
2024-02-27T07:17:20.000Z,24.5
2024-02-27T07:20:04.941Z,22.8
2024-02-27T07:22:49.000Z,25.5
2024-02-27T07:25:34.388Z,23.5
2024-02-27T07:28:35.000Z,23.9
2024-02-27T07:29:52.000Z,19
2024-02-27T07:31:19.000Z,20.9
2024-02-27T07:34:04.000Z,22.9
2024-02-27T07:36:49.171Z,21.8
2024-02-27T07:39:33.000Z,25
2024-02-27T07:42:18.458Z,23.9
2024-02-27T07:45:02.000Z,19.6
2024-02-27T07:47:47.000Z,20.9
2024-02-27T07:50:32.405Z,21.9
2024-02-27T07:53:17.043Z,18.5
2024-02-27T07:56:01.000Z,19.7
2024-02-27T07:57:19.411Z,25
2024-02-27T07:58:46.325Z,23.1
2024-02-27T08:01:30.947Z,22.8
2024-02-27T08:04:15.000Z,20.7
2024-02-27T08:07:00.246Z,22.9
2024-02-27T08:09:44.000Z,20.6
2024-02-27T08:12:29.000Z,23.2
2024-02-27T08:15:13.000Z,19.1
2024-02-27T08:17:58.000Z,19
2024-02-27T08:20:43.000Z,20.4
2024-02-27T08:23:28.070Z,20
2024-02-27T08:24:45.000Z,18.9
2024-02-27T08:26:12.000Z,19.8
2024-02-27T08:28:57.000Z,22
2024-02-27T08:31:41.998Z,21.3
2024-02-27T08:34:26.000Z,21
2024-02-27T08:37:11.000Z,25.6
2024-02-27T08:39:55.928Z,25.9
2024-02-27T08:42:40.565Z,23.4
2024-02-27T08:45:25.210Z,21.5
2024-02-27T08:48:09.851Z,21.5
2024-02-27T08:50:54.504Z,23.2
2024-02-27T08:52:12.276Z,21.5
2024-02-27T08:53:38.000Z,20.9
2024-02-27T08:56:23.776Z,20.5
2024-02-27T08:59:08.000Z,23.6
2024-02-27T09:01:52.000Z,22.1
2024-02-27T09:04:37.718Z,20.5
2024-02-27T09:07:22.348Z,24
2024-02-27T09:10:06.000Z,22.3
2024-02-27T09:12:51.619Z,23.1
2024-02-27T09:15:36.288Z,20.7
2024-02-27T09:18:20.000Z,20.8
2024-02-27T09:19:38.000Z,24.6
2024-02-27T09:21:05.000Z,21.8
2024-02-27T09:23:50.209Z,23
2024-02-27T09:26:34.000Z,22.1
2024-02-27T09:29:19.489Z,20.2
2024-02-27T09:32:04.133Z,20.1
2024-02-27T09:34:48.000Z,20.3
2024-02-27T09:37:33.000Z,22.6
2024-02-27T09:40:18.042Z,19.3
2024-02-27T09:43:02.000Z,22.3
2024-02-27T09:45:47.000Z,20.4
2024-02-27T09:47:04.000Z,23.2
2024-02-27T09:48:31.000Z,20
2024-02-27T09:51:16.605Z,19.6
2024-02-27T09:54:01.253Z,19.6
2024-02-27T09:56:45.890Z,20.4
2024-02-27T09:59:30.000Z,21
2024-02-27T10:02:15.187Z,21.5
2024-02-27T10:04:59.811Z,22.9
2024-02-27T10:07:44.000Z,21.1
2024-02-27T10:10:28.000Z,21.7
2024-02-27T10:13:13.000Z,21.6
2024-02-27T10:14:31.551Z,21.3
2024-02-27T10:15:58.000Z,20.8
2024-02-27T10:18:43.017Z,19.2
2024-02-27T10:21:27.665Z,21.9
2024-02-27T10:24:12.000Z,21.3
2024-02-27T10:26:56.942Z,21.4
2024-02-27T10:29:41.000Z,20.4
2024-02-27T10:32:25.000Z,21.3
2024-02-27T10:35:10.874Z,21.1
2024-02-27T10:37:55.516Z,20.6
2024-02-27T10:40:39.000Z,23.3
2024-02-27T10:41:58.019Z,20.6
2024-02-27T10:43:24.803Z,19.4
2024-02-27T10:46:09.437Z,22.4
2024-02-27T10:48:53.000Z,20.6
2024-02-27T10:51:38.000Z,18.2
2024-02-27T10:54:23.364Z,21.6
2024-02-27T10:57:07.000Z,20.4
2024-02-27T10:59:52.646Z,18.8
2024-02-27T11:02:37.288Z,20.2
2024-02-27T11:05:21.000Z,22.6
2024-02-27T11:08:06.599Z,19.2
2024-02-27T11:09:24.417Z,22.6
2024-02-27T11:10:51.207Z,23.3
2024-02-27T11:13:35.000Z,21.5
2024-02-27T11:16:20.495Z,21.4
2024-02-27T11:19:05.133Z,20.8
2024-02-27T11:21:49.780Z,22.9
2024-02-27T11:24:34.415Z,21.7
2024-02-27T11:27:19.072Z,21.6
2024-02-27T11:30:03.000Z,20.2
2024-02-27T11:32:48.000Z,19.9
2024-02-27T11:35:32.988Z,20.8
2024-02-27T11:36:50.848Z,21.1
2024-02-27T11:38:17.000Z,21.6
2024-02-27T11:41:02.265Z,22.5
2024-02-27T11:43:46.899Z,21.9
2024-02-27T11:46:31.000Z,22.3
2024-02-27T11:49:16.202Z,17.9
2024-02-27T11:52:00.000Z,22.3
2024-02-27T11:54:45.000Z,20.8
2024-02-27T11:57:30.124Z,23.4
2024-02-27T12:00:14.753Z,23.8
2024-02-27T12:02:59.000Z,23.5
2024-02-27T12:04:17.000Z,24.8
2024-02-27T12:05:43.000Z,25.9
2024-02-27T12:08:28.684Z,24.6
2024-02-27T12:11:13.000Z,26.7
2024-02-27T12:13:57.000Z,23.3
2024-02-27T12:16:42.603Z,22.2
2024-02-27T12:19:27.000Z,20.2
2024-02-27T12:22:11.886Z,20
2024-02-27T12:24:56.541Z,19.8
2024-02-27T12:27:41.159Z,21.6
2024-02-27T12:30:25.796Z,22.6
2024-02-27T12:31:43.708Z,22.6
2024-02-27T12:33:10.457Z,19.2
2024-02-27T12:35:54.000Z,22.4
2024-02-27T12:38:39.739Z,21.5
2024-02-27T12:41:24.366Z,20.6
2024-02-27T12:44:09.029Z,22
2024-02-27T12:46:53.000Z,22.4
2024-02-27T12:49:38.293Z,23.6
2024-02-27T12:52:22.000Z,25.2
2024-02-27T12:55:07.592Z,21.9
2024-02-27T12:57:52.215Z,22.1
2024-02-27T12:59:09.000Z,24.1
2024-02-27T13:00:36.000Z,20.9
2024-02-27T13:03:21.000Z,22.1
2024-02-27T13:06:06.157Z,20.8
2024-02-27T13:08:50.000Z,20.6
2024-02-27T13:11:35.421Z,19.7
2024-02-27T13:14:20.065Z,24.6
2024-02-27T13:17:04.702Z,23.5
2024-02-27T13:19:49.350Z,24.3
2024-02-27T13:22:34.008Z,20.8
2024-02-27T13:25:18.000Z,21.3
2024-02-27T13:26:36.000Z,23.1
2024-02-27T13:28:03.278Z,21.5
2024-02-27T13:30:47.909Z,24
2024-02-27T13:33:32.000Z,21
2024-02-27T13:36:17.200Z,23.8
2024-02-27T13:39:01.865Z,23.7
2024-02-27T13:41:46.000Z,21.7
2024-02-27T13:44:31.128Z,21.6
2024-02-27T13:50:00.000Z,22.5
2024-02-27T13:52:44.000Z,25.7
2024-02-27T13:54:03.014Z,22.4
2024-02-27T13:55:29.698Z,21.5
2024-02-27T13:58:14.000Z,23
2024-02-27T14:00:58.973Z,21.3
2024-02-27T14:03:43.608Z,21.6
2024-02-27T14:06:28.000Z,20.5
2024-02-27T14:09:12.888Z,20.4
2024-02-27T14:11:57.538Z,21.2
2024-02-27T14:14:41.000Z,19.9
2024-02-27T14:17:26.819Z,21.8
2024-02-27T14:20:11.470Z,19.5
2024-02-27T14:21:29.439Z,22.5
2024-02-27T14:22:55.000Z,21
2024-02-27T14:25:40.756Z,20.3
2024-02-27T14:28:25.382Z,23.9
2024-02-27T14:31:09.000Z,21.9
2024-02-27T14:33:54.679Z,22.3
2024-02-27T14:36:39.000Z,24.4
2024-02-27T14:39:23.000Z,21
2024-02-27T14:42:08.586Z,22.2
2024-02-27T14:44:53.225Z,20.4
2024-02-27T14:47:37.886Z,23
2024-02-27T14:48:55.877Z,21.3
2024-02-27T14:50:22.000Z,23.3
2024-02-27T14:53:06.000Z,23.3
2024-02-27T14:55:51.000Z,22.7
2024-02-27T14:58:36.437Z,21.8
2024-02-27T15:01:21.089Z,21.5
2024-02-27T15:04:05.000Z,23.1
2024-02-27T15:06:50.379Z,20.4
2024-02-27T15:09:34.998Z,22.1
2024-02-27T15:12:19.000Z,21.6
2024-02-27T15:15:04.000Z,20.6
2024-02-27T15:16:22.000Z,19.3
2024-02-27T15:17:48.929Z,20.6
2024-02-27T15:20:33.563Z,22.1
2024-02-27T15:28:47.000Z,24.6
2024-02-27T15:31:31.000Z,26
2024-02-27T15:34:16.779Z,27.1
2024-02-27T15:37:01.000Z,24.8
2024-02-27T15:39:46.042Z,25.2
2024-02-27T15:42:30.704Z,25.5
2024-02-27T15:43:48.000Z,28.5
2024-02-27T15:45:15.000Z,26.4
2024-02-27T15:47:59.992Z,27.4
2024-02-27T15:50:44.618Z,24.5
2024-02-27T15:53:29.000Z,23.9
2024-02-27T15:56:13.911Z,24.1
2024-02-27T15:58:58.564Z,22.7
2024-02-27T16:01:42.000Z,22.3
2024-02-27T16:04:27.822Z,24.3
2024-02-27T16:07:12.467Z,27.5
2024-02-27T16:09:56.000Z,24.2
2024-02-27T16:12:41.753Z,26
2024-02-27T16:15:26.386Z,24.3
2024-02-27T16:18:10.000Z,26.3
2024-02-27T16:23:40.324Z,24.2
2024-02-27T16:26:24.954Z,22.5
2024-02-27T16:29:09.590Z,27.6
2024-02-27T16:31:54.234Z,23.5
2024-02-27T16:34:38.000Z,23.7
2024-02-27T16:37:23.000Z,24.1
2024-02-27T16:38:41.000Z,24.1
2024-02-27T16:40:08.167Z,20.1
2024-02-27T16:42:52.801Z,20.1
2024-02-27T16:45:37.000Z,25.8
2024-02-27T16:48:22.089Z,20.9
2024-02-27T16:51:06.716Z,20.7
2024-02-27T16:53:51.000Z,16.3
2024-02-27T16:59:04.000Z,19.4
2024-02-27T17:01:48.930Z,23.5
2024-02-27T17:04:33.550Z,20.8
2024-02-27T17:06:07.000Z,18.3
2024-02-27T17:07:25.792Z,18.7
2024-02-27T17:10:26.000Z,19
2024-02-27T17:13:11.554Z,18
2024-02-27T17:15:56.193Z,18.8
2024-02-27T17:18:40.845Z,17.6
2024-02-27T17:21:25.493Z,18.6
2024-02-27T17:24:09.000Z,19
2024-02-27T17:26:54.786Z,20.3
2024-02-27T17:32:23.000Z,19.7
2024-02-27T17:33:41.000Z,19.4
2024-02-27T17:35:08.000Z,21.8
2024-02-27T17:37:53.328Z,22.8
2024-02-27T17:40:37.000Z,16.4
2024-02-27T17:43:22.631Z,17.6
2024-02-27T17:46:07.255Z,21.3
2024-02-27T17:48:51.000Z,19.4
2024-02-27T17:51:36.000Z,22.6
2024-02-27T17:54:21.186Z,19.1
2024-02-27T17:57:05.000Z,20.1
2024-02-27T17:59:50.000Z,20.8
2024-02-27T18:01:08.202Z,18.5
2024-02-27T18:02:35.105Z,20.6
2024-02-27T18:05:19.762Z,19.9
2024-02-27T18:08:04.000Z,18.5
2024-02-27T18:10:49.039Z,23
2024-02-27T18:13:33.000Z,20.5
2024-02-27T18:16:18.307Z,19.5
2024-02-27T18:19:02.965Z,20.5
2024-02-27T18:21:47.000Z,19.8
2024-02-27T18:24:32.233Z,21.1
2024-02-27T18:27:16.894Z,23
2024-02-27T18:28:34.623Z,25.4
2024-02-27T18:30:01.000Z,23.2
2024-02-27T18:32:45.000Z,22.8
2024-02-27T18:35:30.829Z,17.3
2024-02-27T18:38:15.000Z,20.3
2024-02-27T18:43:28.000Z,20.1
2024-02-27T18:46:12.000Z,23.5
2024-02-27T18:48:57.621Z,22.2
2024-02-27T18:51:42.276Z,27.8
2024-02-27T18:54:26.000Z,23.6
2024-02-27T18:56:00.000Z,24.7
2024-02-27T18:57:18.763Z,16.3
2024-02-27T19:00:03.412Z,18.1
2024-02-27T19:02:48.049Z,19.1
2024-02-27T19:05:32.710Z,24.9
2024-02-27T19:08:17.356Z,23.5
2024-02-27T19:11:01.000Z,25.2
2024-02-27T19:13:46.624Z,24.2
2024-02-27T19:16:31.281Z,26.5
2024-02-27T19:19:15.897Z,19.7
2024-02-27T19:22:00.543Z,26.1
2024-02-27T19:23:27.000Z,18.7
2024-02-27T19:24:45.210Z,24.7
2024-02-27T19:27:29.000Z,21.3
2024-02-27T19:30:14.000Z,22.8
2024-02-27T19:32:59.142Z,22.3
2024-02-27T19:35:43.000Z,23.2
2024-02-27T19:38:28.000Z,23.9
2024-02-27T19:41:13.074Z,24.7
2024-02-27T19:43:57.000Z,22
2024-02-27T19:46:42.000Z,25.2
2024-02-27T19:49:26.984Z,26.5
2024-02-27T19:50:53.924Z,35.1
2024-02-27T19:52:11.649Z,24.9
2024-02-27T19:54:56.300Z,25.2
2024-02-27T19:57:40.927Z,30.1
2024-02-27T20:00:25.000Z,19.6
2024-02-27T20:03:09.000Z,23.4
2024-02-27T20:05:54.863Z,26.1
2024-02-27T20:08:39.000Z,30.1
2024-02-27T20:11:24.141Z,23.4
2024-02-27T20:14:08.780Z,29.1
2024-02-27T20:16:53.431Z,30.6
2024-02-27T20:18:20.384Z,23
2024-02-27T20:19:38.089Z,26.5
2024-02-27T20:22:22.731Z,26.5
2024-02-27T20:25:07.000Z,21
2024-02-27T20:27:52.010Z,25.4
2024-02-27T20:30:36.654Z,30.8
2024-02-27T20:33:21.000Z,27.4
2024-02-27T20:36:05.000Z,27.1
2024-02-27T20:38:50.574Z,22.2
2024-02-27T20:41:35.224Z,33.4
2024-02-27T20:44:19.852Z,22.1
2024-02-27T20:45:46.823Z,24.8
2024-02-27T20:47:04.526Z,39.7
2024-02-27T20:49:48.000Z,26.2
2024-02-27T20:52:33.000Z,21.2
2024-02-27T20:55:18.449Z,28.8
2024-02-27T20:58:02.000Z,27.6
2024-02-27T21:00:47.728Z,22.6
2024-02-27T21:03:32.368Z,24.3
2024-02-27T21:06:16.000Z,28.4
2024-02-27T21:09:01.000Z,28.5
2024-02-27T21:11:46.298Z,26.4
2024-02-27T21:13:13.000Z,27.9
2024-02-27T21:14:30.959Z,33.4
2024-02-27T21:17:15.000Z,30.3
2024-02-27T21:20:00.247Z,34.9
2024-02-27T21:22:44.877Z,32.7
2024-02-27T21:25:29.521Z,25.2
2024-02-27T21:28:14.169Z,30.2
2024-02-27T21:30:58.800Z,23.8
2024-02-27T21:33:43.453Z,24.9
2024-02-27T21:36:28.089Z,26.1
2024-02-27T21:39:12.726Z,25.4
2024-02-27T21:40:39.000Z,28.5
2024-02-27T21:41:57.420Z,30
2024-02-27T21:44:42.056Z,26.3
2024-02-27T21:47:26.000Z,30.8
2024-02-27T21:50:11.000Z,27.6
2024-02-27T21:52:55.978Z,29.7
2024-02-27T21:55:40.000Z,31.7
2024-02-27T21:58:25.254Z,31.5
2024-02-27T22:01:09.887Z,29
2024-02-27T22:03:54.000Z,29.4
2024-02-27T22:06:38.000Z,40.9
2024-02-27T22:08:05.000Z,31.5
2024-02-27T22:09:23.852Z,30.6
2024-02-27T22:14:36.750Z,32.1
2024-02-27T22:17:21.395Z,22.1
2024-02-27T22:20:06.019Z,36.2
2024-02-27T22:22:50.664Z,28.8
2024-02-27T22:25:35.298Z,30.6
2024-02-27T22:28:19.000Z,27.1
2024-02-27T22:31:04.602Z,43.3
2024-02-27T22:33:49.220Z,32.1
2024-02-27T22:35:32.000Z,32.5
2024-02-27T22:39:34.924Z,39.2
2024-02-27T22:42:19.567Z,28.9
2024-02-27T22:45:04.199Z,32.8
2024-02-27T22:47:48.839Z,26.2
2024-02-27T22:50:33.494Z,27.4
2024-02-27T22:53:18.121Z,28.9
2024-02-27T22:56:02.772Z,33.7
2024-02-27T22:58:47.407Z,31.4
2024-02-27T23:01:31.000Z,32.8
2024-02-27T23:02:58.992Z,32.1
2024-02-27T23:04:16.000Z,29.9
2024-02-27T23:07:01.344Z,35.3
2024-02-27T23:09:45.982Z,28.5
2024-02-27T23:12:30.000Z,37.3
2024-02-27T23:15:15.268Z,32.6
2024-02-27T23:17:59.000Z,29.5
2024-02-27T23:20:44.555Z,38.1
2024-02-27T23:23:29.201Z,41.3
2024-02-27T23:26:13.000Z,36.5
2024-02-27T23:28:58.472Z,29.5
2024-02-27T23:30:25.000Z,38.7
2024-02-27T23:31:43.152Z,34.3
2024-02-27T23:34:27.791Z,37.7
2024-02-27T23:37:12.426Z,36.8
2024-02-27T23:39:57.076Z,31.6
2024-02-27T23:42:41.000Z,34.9
2024-02-27T23:45:26.354Z,34.5
2024-02-27T23:48:11.002Z,35
2024-02-27T23:50:55.000Z,31.2
2024-02-27T23:53:40.266Z,35.2
2024-02-27T23:56:24.914Z,42.3
2024-02-27T23:57:51.000Z,40.8
2024-02-27T23:59:09.000Z,30
